Time;durP1;ratioP1;P1;durP2;ratioP2;P2;SDS_P1;SDS_P2;PMS_P1;PMS_P2;Temp;Humidity;BMP_temperature;BMP_pressure;BME280_temperature;BME280_humidity;BME280_pressure;Samples;Min_cycle;Max_cycle;Signal;HPM_P1;HPM_P2
2021/03/05 00:01:14;;;;;;;3.35;2.53;;;7.90;74.40;;;;;;4971239;28;20027;-83
2021/03/05 00:03:41;;;;;;;4.90;2.50;;;7.90;74.50;;;;;;4973224;28;20034;-82
2021/03/05 00:06:06;;;;;;;4.88;2.60;;;7.90;74.50;;;;;;4953529;28;20038;-84
2021/03/05 00:08:32;;;;;;;4.53;3.08;;;7.90;74.50;;;;;;4992279;28;20061;-83
2021/03/05 00:10:58;;;;;;;4.65;2.80;;;7.80;74.40;;;;;;4975922;28;20035;-83
2021/03/05 00:13:25;;;;;;;4.85;2.63;;;7.90;74.50;;;;;;4959536;28;20042;-83
2021/03/05 00:15:51;;;;;;;5.28;3.33;;;7.90;74.60;;;;;;4997804;28;20018;-83
2021/03/05 00:18:17;;;;;;;5.20;3.30;;;7.80;74.50;;;;;;4983012;28;20038;-84
2021/03/05 00:20:45;;;;;;;5.20;2.88;;;7.90;74.60;;;;;;4982027;28;20022;-84
2021/03/05 00:23:12;;;;;;;8.00;4.47;;;7.90;74.60;;;;;;4976003;28;20106;-84
2021/03/05 00:25:38;;;;;;;4.82;3.28;;;7.80;74.50;;;;;;4982620;28;20485;-83
2021/03/05 00:28:05;;;;;;;6.13;3.65;;;7.80;74.50;;;;;;4951323;28;20118;-84
2021/03/05 00:30:30;;;;;;;5.57;3.63;;;7.80;74.50;;;;;;4979215;28;20038;-83
2021/03/05 00:32:56;;;;;;;8.00;4.53;;;7.80;74.50;;;;;;4980746;28;20034;-83
2021/03/05 00:35:22;;;;;;;6.95;4.07;;;7.80;74.50;;;;;;4979270;28;20030;-83
2021/03/05 00:37:50;;;;;;;6.30;4.25;;;7.80;74.50;;;;;;4979172;28;20026;-83
2021/03/05 00:40:18;;;;;;;6.45;3.88;;;7.80;74.50;;;;;;4975729;28;20142;-83
2021/03/05 00:42:45;;;;;;;6.10;4.00;;;7.80;74.60;;;;;;4994020;28;20120;-83
2021/03/05 00:45:12;;;;;;;6.43;3.95;;;7.80;74.60;;;;;;4995529;28;20077;-84
2021/03/05 00:47:38;;;;;;;6.88;4.68;;;7.80;74.60;;;;;;4995298;28;20030;-83
2021/03/05 00:50:06;;;;;;;6.07;3.90;;;7.80;74.60;;;;;;4978870;28;20031;-83
2021/03/05 00:52:33;;;;;;;5.72;4.00;;;7.80;74.60;;;;;;4995111;28;20032;-83
2021/03/05 00:54:59;;;;;;;7.00;4.15;;;7.70;74.50;;;;;;4994995;28;20034;-83
2021/03/05 00:57:26;;;;;;;6.25;4.10;;;7.80;74.60;;;;;;4975956;28;20062;-84
2021/03/05 00:59:52;;;;;;;5.95;3.85;;;7.80;74.60;;;;;;4993172;28;20177;-83
2021/03/05 01:02:18;;;;;;;6.13;4.50;;;7.70;74.60;;;;;;4978319;28;20114;-83
2021/03/05 01:04:43;;;;;;;5.57;3.85;;;7.70;74.60;;;;;;4978846;28;20054;-83
2021/03/05 01:07:09;;;;;;;6.88;4.20;;;7.70;74.50;;;;;;4977944;28;20058;-83
2021/03/05 01:09:35;;;;;;;6.85;4.57;;;7.70;74.60;;;;;;4994652;28;20026;-83
2021/03/05 01:12:02;;;;;;;6.38;4.38;;;7.70;74.60;;;;;;4963011;28;20038;-83
2021/03/05 01:14:28;;;;;;;6.97;4.20;;;7.70;74.50;;;;;;4962305;28;20031;-82
2021/03/05 01:16:54;;;;;;;6.57;4.25;;;7.70;74.60;;;;;;4975517;28;20058;-83
2021/03/05 01:19:20;;;;;;;5.63;4.10;;;7.70;74.60;;;;;;4987973;28;20045;-83
2021/03/05 01:21:45;;;;;;;5.93;3.70;;;7.70;74.60;;;;;;4980939;28;20058;-83
2021/03/05 01:24:12;;;;;;;6.47;4.15;;;7.70;74.60;;;;;;4978073;28;20049;-83
2021/03/05 01:26:40;;;;;;;6.43;3.80;;;7.70;74.60;;;;;;4974676;28;20038;-83
2021/03/05 01:29:07;;;;;;;6.43;4.38;;;7.60;74.50;;;;;;4975192;28;20089;-83
2021/03/05 01:31:33;;;;;;;5.68;3.83;;;7.60;74.50;;;;;;4967887;28;20066;-83
2021/03/05 01:33:59;;;;;;;5.90;4.18;;;7.60;74.50;;;;;;4975253;28;20525;-83
2021/03/05 01:36:25;;;;;;;5.82;4.18;;;7.60;74.50;;;;;;4994041;28;20026;-83
2021/03/05 01:38:51;;;;;;;6.13;4.22;;;7.60;74.50;;;;;;4977603;28;20403;-83
2021/03/05 01:41:17;;;;;;;6.07;4.22;;;7.60;74.50;;;;;;4977392;28;20034;-83
2021/03/05 01:43:42;;;;;;;6.22;4.30;;;7.60;74.50;;;;;;4977757;28;20023;-83
2021/03/05 01:46:09;;;;;;;5.60;4.10;;;7.50;74.50;;;;;;4977916;28;20034;-83
2021/03/05 01:48:39;;;;;;;5.97;4.10;;;7.60;74.50;;;;;;4961871;28;20030;-83
2021/03/05 01:51:10;;;;;;;5.43;3.90;;;7.50;74.50;;;;;;4994079;28;20046;-84
2021/03/05 01:53:36;;;;;;;5.10;3.80;;;7.50;74.50;;;;;;4993827;28;20033;-84
2021/03/05 01:56:03;;;;;;;6.05;4.18;;;7.50;74.50;;;;;;4961940;28;20030;-83
2021/03/05 01:58:29;;;;;;;6.10;4.47;;;7.50;74.50;;;;;;4976899;28;20050;-83
2021/03/05 02:01:00;;;;;;;6.38;4.00;;;7.40;74.50;;;;;;4958583;28;20478;-83
2021/03/05 02:03:29;;;;;;;5.47;3.75;;;7.40;74.50;;;;;;4992535;28;20026;-83
2021/03/05 02:05:55;;;;;;;5.80;3.92;;;7.40;74.50;;;;;;4993784;28;20065;-83
2021/03/05 02:08:21;;;;;;;5.80;4.18;;;7.40;74.50;;;;;;4976936;28;20043;-83
2021/03/05 02:10:47;;;;;;;5.68;4.15;;;7.30;74.40;;;;;;4958235;28;20054;-83
2021/03/05 02:13:12;;;;;;;5.97;4.20;;;7.30;74.50;;;;;;4956194;28;20372;-83
2021/03/05 02:15:39;;;;;;;6.53;4.07;;;7.30;74.40;;;;;;4968136;28;20049;-83
2021/03/05 02:18:13;;;;;;;6.15;4.10;;;7.30;74.40;;;;;;4993084;28;20034;-84
2021/03/05 02:20:48;;;;;;;6.05;4.35;;;7.30;74.50;;;;;;4980339;28;20505;-83
2021/03/05 02:23:47;;;;;;;6.43;4.40;;;7.30;74.50;;;;;;4976901;28;20038;-84
2021/03/05 02:26:25;;;;;;;5.68;3.67;;;7.20;74.50;;;;;;4980631;28;20030;-83
2021/03/05 02:29:04;;;;;;;5.75;4.07;;;7.20;74.40;;;;;;4993247;28;20525;-83
2021/03/05 02:31:43;;;;;;;6.47;3.92;;;7.20;74.50;;;;;;4977197;28;20041;-83
2021/03/05 02:34:24;;;;;;;6.13;4.13;;;7.10;74.50;;;;;;4993238;28;20463;-83
2021/03/05 02:36:55;;;;;;;5.38;3.55;;;7.10;74.50;;;;;;4993139;28;20019;-83
2021/03/05 02:39:24;;;;;;;5.40;3.83;;;7.10;74.50;;;;;;4992267;28;20033;-83
2021/03/05 02:41:58;;;;;;;5.93;4.28;;;7.10;74.50;;;;;;4993300;28;20102;-83
2021/03/05 02:44:27;;;;;;;6.00;4.38;;;7.00;74.50;;;;;;4992812;28;20069;-83
2021/03/05 02:47:00;;;;;;;5.63;3.60;;;7.00;74.50;;;;;;4993254;28;20029;-83
2021/03/05 02:49:30;;;;;;;5.55;3.92;;;7.00;74.50;;;;;;4992669;28;20114;-84
2021/03/05 02:51:58;;;;;;;6.97;4.38;;;7.00;74.50;;;;;;4981736;28;20057;-83
2021/03/05 02:54:27;;;;;;;5.55;4.25;;;6.90;74.40;;;;;;4992648;28;20057;-83
2021/03/05 02:56:54;;;;;;;6.22;4.57;;;6.90;74.50;;;;;;4976422;28;20026;-83
2021/03/05 02:59:22;;;;;;;5.78;4.20;;;6.90;74.50;;;;;;4976562;28;20042;-83
2021/03/05 03:01:49;;;;;;;5.90;4.15;;;6.90;74.50;;;;;;4976171;28;20033;-82
2021/03/05 03:04:16;;;;;;;6.20;4.13;;;6.90;74.40;;;;;;4977017;28;20026;-83
2021/03/05 03:06:45;;;;;;;6.28;4.45;;;6.90;74.40;;;;;;4957162;28;20031;-83
2021/03/05 03:09:14;;;;;;;6.05;4.15;;;6.90;74.50;;;;;;4976053;28;20054;-83
2021/03/05 03:11:42;;;;;;;6.45;4.43;;;6.80;74.40;;;;;;4975845;28;20034;-83
2021/03/05 03:14:09;;;;;;;5.47;4.07;;;6.80;74.40;;;;;;4992521;28;20026;-83
2021/03/05 03:16:38;;;;;;;5.22;3.60;;;6.80;74.50;;;;;;4974420;28;20030;-83
2021/03/05 03:19:08;;;;;;;6.25;4.57;;;6.80;74.50;;;;;;4976477;28;20456;-83
2021/03/05 03:21:35;;;;;;;5.88;4.15;;;6.70;74.50;;;;;;4972285;28;20114;-83
2021/03/05 03:24:01;;;;;;;6.03;4.32;;;6.70;74.50;;;;;;4963017;28;20030;-83
2021/03/05 03:26:26;;;;;;;5.70;4.07;;;6.60;74.40;;;;;;4972811;28;20030;-83
2021/03/05 03:28:52;;;;;;;6.75;4.40;;;6.70;74.50;;;;;;4976030;28;20471;-83
2021/03/05 03:31:18;;;;;;;6.72;4.28;;;6.70;74.50;;;;;;4993281;28;20030;-83
2021/03/05 03:33:45;;;;;;;6.32;4.15;;;6.60;74.40;;;;;;4991700;28;20481;-82
2021/03/05 03:36:13;;;;;;;6.18;4.10;;;6.60;74.50;;;;;;4976255;28;20101;-83
2021/03/05 03:38:39;;;;;;;5.70;4.22;;;6.60;75.10;;;;;;4976182;28;20682;-83
2021/03/05 03:41:05;;;;;;;7.13;4.78;;;6.60;74.50;;;;;;4982812;28;20033;-83
2021/03/05 03:43:31;;;;;;;6.70;4.65;;;6.50;74.40;;;;;;4991359;28;20367;-83
2021/03/05 03:45:58;;;;;;;5.53;4.00;;;6.50;74.50;;;;;;4981700;28;20031;-83
2021/03/05 03:48:26;;;;;;;5.93;4.15;;;6.50;74.50;;;;;;4990961;28;20459;-82
2021/03/05 03:51:14;;;;;;;6.45;4.50;;;6.50;74.50;;;;;;4996006;28;20065;-83
2021/03/05 03:53:43;;;;;;;5.90;3.88;;;6.50;74.70;;;;;;4995415;28;20018;-83
2021/03/05 03:56:10;;;;;;;5.47;3.78;;;6.40;74.40;;;;;;4963820;28;20084;-83
2021/03/05 03:58:38;;;;;;;5.95;3.95;;;6.40;74.50;;;;;;4984367;28;20035;-83
2021/03/05 04:01:09;;;;;;;5.88;4.13;;;6.40;74.50;;;;;;4980082;28;20590;-83
2021/03/05 04:03:37;;;;;;;6.88;4.28;;;6.30;74.50;;;;;;4995681;28;20118;-83
2021/03/05 04:06:04;;;;;;;5.35;3.83;;;6.30;74.40;;;;;;4980102;28;20022;-83
2021/03/05 04:08:33;;;;;;;4.82;3.78;;;6.30;74.40;;;;;;4994705;28;20057;-83
2021/03/05 04:11:00;;;;;;;5.95;3.80;;;6.30;74.40;;;;;;4980143;28;20043;-83
2021/03/05 04:13:28;;;;;;;5.75;3.83;;;6.20;74.40;;;;;;4974015;28;20035;-86
2021/03/05 04:15:54;;;;;;;6.03;3.58;;;6.20;74.50;;;;;;4969607;28;20022;-83
2021/03/05 04:18:20;;;;;;;5.45;3.75;;;6.20;74.40;;;;;;4984713;28;20443;-83
2021/03/05 04:20:46;;;;;;;4.85;3.45;;;6.20;74.40;;;;;;4994180;28;20549;-83
2021/03/05 04:23:12;;;;;;;6.20;4.03;;;6.20;74.40;;;;;;4969623;28;20026;-83
2021/03/05 04:25:38;;;;;;;6.13;4.00;;;6.10;74.40;;;;;;4994025;28;20019;-83
2021/03/05 04:28:04;;;;;;;5.97;3.90;;;6.10;74.40;;;;;;5005490;28;20067;-83
2021/03/05 04:30:30;;;;;;;4.90;3.55;;;6.10;74.40;;;;;;4976151;28;20054;-83
2021/03/05 04:32:56;;;;;;;5.00;3.13;;;6.10;74.40;;;;;;4975998;28;20454;-83
2021/03/05 04:35:21;;;;;;;5.15;3.70;;;6.10;74.50;;;;;;4992591;28;20027;-83
2021/03/05 04:37:47;;;;;;;5.57;3.50;;;6.00;74.40;;;;;;4978295;28;20070;-83
2021/03/05 04:40:13;;;;;;;4.78;3.55;;;6.00;74.40;;;;;;4971177;28;20060;-83
2021/03/05 04:42:39;;;;;;;4.75;3.42;;;6.00;74.40;;;;;;4973523;28;20026;-82
2021/03/05 04:45:06;;;;;;;5.32;3.50;;;6.00;74.40;;;;;;4963265;28;20376;-83
2021/03/05 04:47:33;;;;;;;5.70;3.58;;;6.00;74.40;;;;;;4994766;28;20035;-83
2021/03/05 04:49:58;;;;;;;5.05;3.83;;;5.90;74.30;;;;;;4977822;28;20026;-83
2021/03/05 04:52:25;;;;;;;6.18;4.32;;;5.90;74.40;;;;;;4947497;28;20053;-83
2021/03/05 04:54:51;;;;;;;5.20;3.65;;;5.90;74.40;;;;;;4962265;28;20104;-83
2021/03/05 04:57:17;;;;;;;5.90;3.28;;;5.90;74.40;;;;;;4978996;28;20117;-82
2021/03/05 04:59:42;;;;;;;6.00;3.75;;;5.80;74.30;;;;;;4993879;28;20162;-83
2021/03/05 05:02:08;;;;;;;4.70;3.47;;;5.80;74.30;;;;;;4972029;28;20042;-83
2021/03/05 05:04:34;;;;;;;4.95;3.47;;;5.80;74.30;;;;;;4978083;28;20049;-83
2021/03/05 05:07:00;;;;;;;5.18;3.30;;;5.80;74.30;;;;;;4962675;28;20037;-83
2021/03/05 05:09:25;;;;;;;5.13;3.63;;;5.70;74.30;;;;;;4975499;28;20058;-83
2021/03/05 05:11:51;;;;;;;5.22;3.90;;;5.70;74.40;;;;;;4961494;28;20041;-83
2021/03/05 05:14:17;;;;;;;5.97;3.85;;;5.70;74.40;;;;;;4937803;28;20391;-83
2021/03/05 05:16:43;;;;;;;5.20;3.55;;;5.70;74.40;;;;;;4987284;28;20037;-83
2021/03/05 05:19:08;;;;;;;5.82;3.97;;;5.70;74.40;;;;;;4962179;28;20034;-83
2021/03/05 05:21:34;;;;;;;5.25;3.38;;;5.60;74.30;;;;;;4974685;28;20125;-83
2021/03/05 05:24:00;;;;;;;6.68;4.03;;;5.60;74.30;;;;;;4960305;28;20037;-84
2021/03/05 05:26:25;;;;;;;5.05;3.58;;;5.60;74.40;;;;;;4960406;28;20038;-79
2021/03/05 05:28:51;;;;;;;5.68;3.58;;;5.60;74.40;;;;;;4958305;28;20871;-82
2021/03/05 05:31:17;;;;;;;5.85;3.58;;;5.60;74.40;;;;;;4971498;28;20058;-80
2021/03/05 05:33:43;;;;;;;4.97;3.13;;;5.50;74.30;;;;;;4977774;28;20023;-81
2021/03/05 05:36:09;;;;;;;4.70;3.08;;;5.50;74.40;;;;;;4992446;28;20185;-81
2021/03/05 05:38:34;;;;;;;5.43;3.42;;;5.50;74.30;;;;;;4977396;28;20088;-82
2021/03/05 05:41:01;;;;;;;4.32;3.15;;;5.50;74.40;;;;;;4995967;28;20526;-82
2021/03/05 05:43:32;;;;;;;6.03;3.47;;;5.50;74.40;;;;;;4993054;28;20475;-82
2021/03/05 05:46:06;;;;;;;5.35;3.47;;;5.40;74.90;;;;;;4974484;28;20463;-80
2021/03/05 05:48:35;;;;;;;4.50;3.17;;;5.40;74.40;;;;;;4982803;28;20030;-82
2021/03/05 05:51:17;;;;;;;5.13;3.50;;;5.40;74.30;;;;;;4994954;28;20030;-81
2021/03/05 05:53:45;;;;;;;5.35;3.45;;;5.30;74.30;;;;;;4979402;28;20030;-82
2021/03/05 05:56:19;;;;;;;5.10;3.33;;;5.30;74.20;;;;;;4995036;28;20468;-82
2021/03/05 05:58:45;;;;;;;4.75;3.15;;;5.30;74.30;;;;;;4994565;28;20479;-82
2021/03/05 06:01:12;;;;;;;4.93;3.60;;;5.30;74.30;;;;;;4994826;28;20026;-81
2021/03/05 06:03:39;;;;;;;5.28;3.08;;;5.30;74.30;;;;;;4974872;28;20042;-79
2021/03/05 06:06:05;;;;;;;4.55;3.20;;;5.30;74.40;;;;;;4994932;28;20123;-83
2021/03/05 06:08:32;;;;;;;4.80;3.20;;;5.30;74.30;;;;;;4977650;28;20487;-82
2021/03/05 06:10:58;;;;;;;4.95;3.22;;;5.20;74.30;;;;;;4994554;28;20026;-85
2021/03/05 06:13:26;;;;;;;4.05;2.80;;;5.20;74.30;;;;;;4975061;28;20046;-83
2021/03/05 06:16:13;;;;;;;5.80;3.42;;;5.20;74.30;;;;;;4946103;28;20498;-82
2021/03/05 06:18:40;;;;;;;4.68;3.28;;;5.20;74.40;;;;;;4977732;28;20030;-86
2021/03/05 06:21:06;;;;;;;5.10;3.20;;;5.20;74.30;;;;;;4976353;28;20121;-81
2021/03/05 06:23:34;;;;;;;4.90;3.30;;;5.20;74.30;;;;;;4973980;28;20443;-80
2021/03/05 06:26:02;;;;;;;5.00;3.00;;;5.10;74.30;;;;;;4970061;28;20037;-82
2021/03/05 06:28:28;;;;;;;4.78;3.40;;;5.10;74.30;;;;;;4977180;28;20034;-81
2021/03/05 06:30:54;;;;;;;4.95;3.40;;;5.10;74.30;;;;;;4991975;28;20026;-82
2021/03/05 06:33:25;;;;;;;5.13;3.35;;;5.10;74.30;;;;;;4993104;28;20022;-81
2021/03/05 06:35:51;;;;;;;5.05;3.08;;;5.10;74.30;;;;;;4976519;28;20061;-81
2021/03/05 06:38:40;;;;;;;6.05;3.28;;;5.00;74.30;;;;;;4960692;28;20072;-82
2021/03/05 06:41:18;;;;;;;4.65;3.38;;;5.00;74.40;;;;;;4974947;28;20022;-81
2021/03/05 06:43:52;;;;;;;4.45;3.05;;;5.00;74.30;;;;;;4973222;28;20038;-81
2021/03/05 06:46:27;;;;;;;3.72;2.55;;;5.00;74.30;;;;;;4981046;28;20538;-81
2021/03/05 06:48:54;;;;;;;3.72;2.75;;;5.00;74.30;;;;;;4991551;28;20026;-81
2021/03/05 06:51:20;;;;;;;4.40;2.58;;;4.90;74.30;;;;;;4976813;28;20041;-81
2021/03/05 06:53:47;;;;;;;4.63;2.97;;;4.90;74.30;;;;;;4992725;28;20038;-82
2021/03/05 06:56:29;;;;;;;3.75;2.78;;;4.90;74.30;;;;;;4976287;28;20041;-80
2021/03/05 06:59:07;;;;;;;4.38;2.58;;;4.90;74.40;;;;;;4991839;28;20034;-80
2021/03/05 07:01:50;;;;;;;4.65;3.00;;;4.90;74.30;;;;;;4980530;28;20038;-82
2021/03/05 07:04:18;;;;;;;3.50;2.40;;;4.80;74.40;;;;;;4984556;28;20077;-80
2021/03/05 07:06:44;;;;;;;4.47;2.92;;;4.80;74.20;;;;;;4991655;28;20037;-80
2021/03/05 07:09:25;;;;;;;4.80;2.70;;;4.80;74.30;;;;;;4975652;28;20097;-79
2021/03/05 07:11:52;;;;;;;4.30;2.85;;;4.80;74.40;;;;;;4981034;28;20035;-81
2021/03/05 07:14:19;;;;;;;4.47;2.70;;;4.80;74.30;;;;;;4981503;28;20045;-80
2021/03/05 07:16:47;;;;;;;3.97;2.65;;;4.80;74.30;;;;;;4975611;28;20391;-81
2021/03/05 07:19:20;;;;;;;5.03;2.58;;;4.70;74.30;;;;;;4975855;28;20521;-82
2021/03/05 07:21:48;;;;;;;4.22;2.67;;;4.70;74.30;;;;;;4973668;28;20515;-82
2021/03/05 07:24:16;;;;;;;3.88;2.80;;;4.80;74.30;;;;;;4966154;28;20037;-83
2021/03/05 07:26:44;;;;;;;3.85;2.72;;;4.80;74.30;;;;;;4998940;28;20038;-82
2021/03/05 07:29:21;;;;;;;4.00;2.47;;;4.80;74.30;;;;;;4982349;28;20027;-83
2021/03/05 07:31:58;;;;;;;4.10;2.70;;;4.70;74.40;;;;;;4999057;28;20479;-86
2021/03/05 07:34:29;;;;;;;3.15;2.35;;;4.70;74.30;;;;;;4980720;28;20036;-86
2021/03/05 07:37:03;;;;;;;4.60;2.90;;;4.70;74.30;;;;;;4991204;28;20110;-86
2021/03/05 07:39:37;;;;;;;3.72;2.65;;;4.70;74.40;;;;;;4979723;28;20125;-87
2021/03/05 07:42:04;;;;;;;5.93;2.90;;;4.70;74.30;;;;;;4983342;28;20053;-86
2021/03/05 07:44:39;;;;;;;4.13;2.72;;;4.70;74.30;;;;;;4979867;28;20419;-85
2021/03/05 07:47:10;;;;;;;3.88;2.45;;;4.70;74.30;;;;;;4983175;28;20023;-85
2021/03/05 07:49:36;;;;;;;3.45;2.22;;;4.70;74.40;;;;;;4999045;28;20026;-85
2021/03/05 07:52:03;;;;;;;4.00;2.30;;;4.70;74.40;;;;;;4983028;28;20080;-85
2021/03/05 07:54:46;;;;;;;3.22;2.70;;;4.60;74.30;;;;;;4982568;28;20030;-86
2021/03/05 07:57:14;;;;;;;3.30;2.45;;;4.60;74.40;;;;;;4982670;28;20031;-85
2021/03/05 07:59:40;;;;;;;3.33;2.22;;;4.70;74.40;;;;;;4982902;28;20041;-85
2021/03/05 08:02:09;;;;;;;2.55;2.10;;;4.70;74.40;;;;;;4998850;28;20038;-85
2021/03/05 08:04:55;;;;;;;3.45;2.30;;;4.60;74.30;;;;;;4981938;28;20030;-85
2021/03/05 08:07:29;;;;;;;4.60;2.60;;;4.70;74.50;;;;;;4983001;28;20038;-85
2021/03/05 08:09:56;;;;;;;3.53;2.42;;;4.60;74.30;;;;;;4999644;28;20125;-86
2021/03/05 08:12:36;;;;;;;3.13;2.35;;;4.60;74.30;;;;;;5000309;28;20082;-85
2021/03/05 08:15:08;;;;;;;3.92;2.30;;;4.60;74.40;;;;;;4994277;28;20031;-86
2021/03/05 08:17:38;;;;;;;3.63;2.53;;;4.60;74.40;;;;;;4979050;28;20026;-85
2021/03/05 08:20:08;;;;;;;3.70;2.42;;;4.60;74.40;;;;;;4991942;28;20039;-86
2021/03/05 08:23:04;;;;;;;3.80;2.90;;;4.60;74.40;;;;;;4984859;28;20023;-84
2021/03/05 08:25:32;;;;;;;4.85;2.40;;;4.60;74.50;;;;;;4958199;28;20065;-85
2021/03/05 08:28:00;;;;;;;3.67;2.45;;;4.60;74.30;;;;;;4975542;28;20479;-84
2021/03/05 08:30:26;;;;;;;2.83;2.20;;;4.60;74.40;;;;;;4980334;28;20054;-86
2021/03/05 08:32:58;;;;;;;3.38;2.47;;;4.60;74.30;;;;;;5006797;28;20058;-85
2021/03/05 08:35:34;;;;;;;3.97;2.28;;;4.60;74.40;;;;;;4999199;28;20026;-85
2021/03/05 08:38:09;;;;;;;4.95;2.58;;;4.60;74.40;;;;;;4994908;28;20554;-86
2021/03/05 08:40:47;;;;;;;3.65;2.10;;;4.60;74.40;;;;;;4985542;28;20027;-85
2021/03/05 08:43:27;;;;;;;4.03;2.33;;;4.60;74.30;;;;;;4981336;28;20038;-85
2021/03/05 08:46:07;;;;;;;3.38;2.38;;;4.60;74.30;;;;;;4990449;28;20113;-85
2021/03/05 08:48:39;;;;;;;3.15;2.28;;;4.70;74.40;;;;;;4983026;28;20114;-85
2021/03/05 08:51:08;;;;;;;3.17;2.33;;;4.60;74.30;;;;;;4980281;28;20109;-85
2021/03/05 08:53:56;;;;;;;3.53;1.95;;;4.70;74.40;;;;;;4973771;28;20074;-85
2021/03/05 08:56:30;;;;;;;2.10;1.90;;;4.60;74.30;;;;;;4978681;28;20529;-86
2021/03/05 08:59:00;;;;;;;2.40;1.95;;;4.70;74.40;;;;;;4985140;28;20084;-84
2021/03/05 09:01:31;;;;;;;3.15;2.30;;;4.70;74.30;;;;;;4980446;28;20042;-86
2021/03/05 09:04:11;;;;;;;3.05;2.28;;;4.70;74.30;;;;;;4983222;28;20135;-82
2021/03/05 09:06:46;;;;;;;3.13;2.10;;;4.70;74.40;;;;;;4963899;28;20034;-85
2021/03/05 09:09:12;;;;;;;2.58;1.80;;;4.70;75.00;;;;;;4993661;28;20067;-87
2021/03/05 09:11:38;;;;;;;2.88;1.73;;;4.70;74.20;;;;;;4978355;28;20080;-84
2021/03/05 09:14:24;;;;;;;2.60;1.90;;;4.80;74.30;;;;;;4977767;28;20034;-85
2021/03/05 09:16:59;;;;;;;2.42;1.90;;;4.70;74.90;;;;;;4993255;28;20049;-84
2021/03/05 09:19:40;;;;;;;2.40;2.10;;;4.80;74.20;;;;;;4984941;28;20467;-84
2021/03/05 09:22:08;;;;;;;2.67;1.80;;;4.80;74.30;;;;;;4991571;28;20130;-84
2021/03/05 09:24:46;;;;;;;2.92;1.77;;;4.80;74.10;;;;;;4981060;28;20053;-85
2021/03/05 09:27:22;;;;;;;2.17;1.77;;;4.90;74.30;;;;;;4995848;28;20031;-85
2021/03/05 09:29:48;;;;;;;2.17;1.50;;;4.90;74.20;;;;;;4965971;28;20100;-84
2021/03/05 09:32:14;;;;;;;2.20;1.70;;;4.90;74.10;;;;;;4971585;28;20046;-85
2021/03/05 09:34:52;;;;;;;2.50;1.60;;;5.00;74.20;;;;;;4990208;28;20182;-84
2021/03/05 09:37:24;;;;;;;1.80;1.60;;;5.00;74.30;;;;;;4977347;28;20452;-85
2021/03/05 09:39:51;;;;;;;4.28;1.70;;;5.10;74.20;;;;;;4991072;28;20050;-85
2021/03/05 09:42:17;;;;;;;1.95;1.63;;;5.10;74.10;;;;;;4954371;28;20034;-85
2021/03/05 09:44:47;;;;;;;3.53;2.10;;;5.10;74.10;;;;;;4964594;28;20026;-85
2021/03/05 09:47:13;;;;;;;2.13;1.50;;;5.20;74.20;;;;;;4962046;28;20027;-85
2021/03/05 09:49:39;;;;;;;1.90;1.60;;;5.20;74.10;;;;;;4980954;28;20077;-85
2021/03/05 09:52:24;;;;;;;2.40;1.60;;;5.30;74.00;;;;;;4978454;28;20483;-84
2021/03/05 09:54:50;;;;;;;2.25;1.73;;;5.30;74.00;;;;;;4994380;28;20053;-85
2021/03/05 09:57:21;;;;;;;2.55;1.80;;;5.40;74.00;;;;;;4985947;28;20030;-85
2021/03/05 09:59:51;;;;;;;2.08;1.50;;;5.50;74.00;;;;;;4990413;28;20066;-84
2021/03/05 10:02:18;;;;;;;2.22;1.63;;;5.50;73.90;;;;;;4993826;28;20023;-85
2021/03/05 10:04:46;;;;;;;2.75;1.60;;;5.60;73.90;;;;;;4975225;28;20034;-85
2021/03/05 10:07:12;;;;;;;1.58;1.48;;;5.60;73.80;;;;;;4978055;28;20052;-85
2021/03/05 10:09:38;;;;;;;2.08;1.52;;;5.70;73.90;;;;;;4995250;28;20050;-86
2021/03/05 10:12:05;;;;;;;2.10;1.45;;;5.70;73.80;;;;;;4994124;28;20434;-85
2021/03/05 10:14:36;;;;;;;2.10;1.65;;;5.80;73.80;;;;;;4978035;28;20030;-86
2021/03/05 10:17:07;;;;;;;2.03;1.55;;;5.90;73.80;;;;;;4977410;28;20030;-85
2021/03/05 10:19:33;;;;;;;2.03;1.65;;;6.00;73.80;;;;;;4994084;28;20034;-86
2021/03/05 10:22:01;;;;;;;1.60;1.50;;;6.00;73.70;;;;;;4960621;28;20365;-85
2021/03/05 10:24:28;;;;;;;1.95;1.40;;;6.10;73.70;;;;;;4993660;28;20037;-85
2021/03/05 10:29:57;;;;;;;1.30;1.20;;;6.20;73.70;;;;;;4988146;28;20054;-86
2021/03/05 10:32:33;;;;;;;1.90;1.50;;;6.30;73.80;;;;;;4974283;28;20089;-85
2021/03/05 10:35:04;;;;;;;1.60;1.50;;;6.40;73.80;;;;;;4981410;28;20057;-86
2021/03/05 10:37:30;;;;;;;1.70;1.48;;;6.50;73.90;;;;;;4977298;28;20026;-86
2021/03/05 10:39:56;;;;;;;2.13;1.40;;;6.60;73.90;;;;;;4979924;28;20034;-86
2021/03/05 10:42:25;;;;;;;1.67;1.48;;;6.60;73.90;;;;;;4957881;28;20027;-86
2021/03/05 10:44:52;;;;;;;2.97;1.50;;;6.70;73.90;;;;;;4975670;28;20129;-81
2021/03/05 10:47:19;;;;;;;2.25;1.73;;;6.80;73.90;;;;;;4983716;28;20027;-84
2021/03/05 10:49:47;;;;;;;1.33;1.23;;;6.80;73.90;;;;;;4966753;28;20096;-83
2021/03/05 10:52:15;;;;;;;2.17;1.60;;;6.90;73.90;;;;;;4992292;28;20073;-84
2021/03/05 10:54:42;;;;;;;1.73;1.40;;;7.00;73.90;;;;;;4992150;28;20026;-82
2021/03/05 10:57:16;;;;;;;1.60;1.50;;;7.10;73.80;;;;;;4976459;28;20027;-83
2021/03/05 10:59:43;;;;;;;1.40;1.30;;;7.20;73.90;;;;;;4991596;28;20025;-82
2021/03/05 11:02:09;;;;;;;1.38;1.27;;;7.30;73.80;;;;;;4976074;28;20034;-82
2021/03/05 11:04:35;;;;;;;1.77;1.50;;;7.30;73.80;;;;;;4976357;28;20125;-82
2021/03/05 11:07:02;;;;;;;1.95;1.10;;;7.40;73.80;;;;;;4991875;28;20113;-82
2021/03/05 11:09:28;;;;;;;1.60;1.20;;;7.40;73.70;;;;;;4975893;28;20111;-81
2021/03/05 11:11:55;;;;;;;1.58;1.48;;;7.60;73.80;;;;;;4992071;28;20517;-81
2021/03/05 11:14:22;;;;;;;1.77;1.40;;;7.70;73.90;;;;;;4991499;28;20026;-80
2021/03/05 11:16:48;;;;;;;1.48;1.10;;;7.80;73.90;;;;;;4975759;28;20478;-81
2021/03/05 11:19:14;;;;;;;1.20;1.10;;;7.80;73.90;;;;;;4991810;28;20126;-82
2021/03/05 11:21:40;;;;;;;1.45;1.13;;;7.90;73.90;;;;;;4992013;28;20035;-82
2021/03/05 11:24:07;;;;;;;1.17;1.15;;;8.00;74.50;;;;;;4973945;28;20034;-82
2021/03/05 11:26:33;;;;;;;1.67;1.33;;;8.00;73.90;;;;;;4952027;28;20436;-82
2021/03/05 11:28:59;;;;;;;1.77;1.23;;;8.10;73.90;;;;;;4991462;28;20026;-81
2021/03/05 11:31:25;;;;;;;1.65;1.30;;;8.20;73.90;;;;;;4975421;28;20077;-82
2021/03/05 11:33:51;;;;;;;2.22;1.35;;;8.20;73.80;;;;;;4975562;28;20027;-83
2021/03/05 11:36:19;;;;;;;1.33;1.17;;;8.30;73.90;;;;;;4975460;28;20027;-82
2021/03/05 11:38:46;;;;;;;2.33;1.40;;;8.30;73.80;;;;;;4992749;28;20038;-81
2021/03/05 11:41:13;;;;;;;1.30;1.20;;;8.40;73.90;;;;;;4987935;28;20031;-81
2021/03/05 11:43:49;;;;;;;1.30;1.20;;;8.50;73.90;;;;;;4985032;28;20027;-81
2021/03/05 11:46:16;;;;;;;1.63;1.15;;;8.50;73.90;;;;;;4975388;28;20475;-81
2021/03/05 11:48:41;;;;;;;1.30;1.20;;;8.60;73.80;;;;;;4972363;28;20038;-81
2021/03/05 11:51:08;;;;;;;1.52;1.30;;;8.60;73.70;;;;;;4969420;28;20500;-82
2021/03/05 11:53:35;;;;;;;1.40;1.20;;;8.70;74.40;;;;;;4988794;28;20080;-80
2021/03/05 11:56:01;;;;;;;1.10;1.10;;;8.70;73.80;;;;;;4980108;28;20113;-82
2021/03/05 11:58:26;;;;;;;1.25;1.13;;;8.70;73.80;;;;;;4991666;28;20622;-81
2021/03/05 12:00:52;;;;;;;1.08;1.08;;;8.80;73.90;;;;;;4975387;28;20121;-81
2021/03/05 12:03:18;;;;;;;1.08;1.00;;;8.80;74.00;;;;;;4972508;28;20058;-82
2021/03/05 12:05:44;;;;;;;1.55;1.00;;;8.90;74.10;;;;;;4967823;28;20026;-81
2021/03/05 12:08:09;;;;;;;1.10;1.00;;;8.90;74.10;;;;;;4992341;28;20086;-82
2021/03/05 12:10:35;;;;;;;1.17;1.10;;;8.90;74.10;;;;;;4960984;28;20030;-81
2021/03/05 12:13:01;;;;;;;1.65;1.23;;;9.00;74.20;;;;;;4978977;28;20442;-84
2021/03/05 12:15:27;;;;;;;1.05;0.98;;;9.00;74.10;;;;;;4963054;28;20037;-85
2021/03/05 12:17:53;;;;;;;1.23;1.10;;;9.10;74.20;;;;;;4963142;28;20121;-81
2021/03/05 12:20:18;;;;;;;1.15;1.10;;;9.10;74.30;;;;;;4978827;28;20121;-81
2021/03/05 12:22:44;;;;;;;1.13;1.10;;;9.20;74.30;;;;;;4963249;28;20028;-80
2021/03/05 12:25:11;;;;;;;1.70;1.00;;;9.20;74.30;;;;;;4994671;28;20026;-80
2021/03/05 12:27:37;;;;;;;1.13;0.95;;;9.20;74.30;;;;;;4995055;28;20023;-81
2021/03/05 12:30:05;;;;;;;1.10;1.00;;;9.30;74.20;;;;;;4963546;28;20039;-80
2021/03/05 12:32:31;;;;;;;1.15;1.02;;;9.30;74.20;;;;;;4991130;28;20262;-80
2021/03/05 12:34:56;;;;;;;1.05;1.02;;;9.30;74.10;;;;;;4978635;28;20037;-81
2021/03/05 12:37:22;;;;;;;1.02;1.00;;;9.30;74.00;;;;;;4978410;28;20027;-81
2021/03/05 12:39:48;;;;;;;1.05;1.00;;;9.40;74.00;;;;;;4978704;28;20046;-80
2021/03/05 12:42:14;;;;;;;1.27;1.17;;;9.40;73.80;;;;;;4994474;28;20049;-81
2021/03/05 12:44:40;;;;;;;1.05;1.02;;;9.40;73.60;;;;;;4978841;28;20034;-81
2021/03/05 12:47:06;;;;;;;0.93;0.93;;;9.50;73.40;;;;;;4994787;28;20022;-81
2021/03/05 12:49:32;;;;;;;1.00;1.00;;;9.50;73.40;;;;;;4978524;28;20041;-81
2021/03/05 12:51:58;;;;;;;1.00;1.00;;;9.60;73.40;;;;;;4978625;28;20145;-82
2021/03/05 12:54:23;;;;;;;1.00;1.00;;;9.60;73.30;;;;;;4974825;28;20030;-82
2021/03/05 12:56:49;;;;;;;1.05;1.00;;;9.60;73.30;;;;;;4987656;28;20030;-81
2021/03/05 12:59:15;;;;;;;1.85;1.20;;;9.70;73.30;;;;;;4974883;28;20039;-82
2021/03/05 13:01:41;;;;;;;1.30;1.20;;;9.70;73.40;;;;;;4985946;28;20438;-80
2021/03/05 13:04:06;;;;;;;0.90;0.85;;;9.70;74.00;;;;;;4978048;28;20030;-81
2021/03/05 13:06:32;;;;;;;1.15;1.00;;;9.70;73.40;;;;;;4978300;28;20038;-81
2021/03/05 13:08:58;;;;;;;1.38;0.90;;;9.70;73.40;;;;;;4977554;28;20475;-81